createdAt,value
2018-03-23T00:01:30.574Z,18.63
2018-03-23T00:03:58.747Z,20.63
2018-03-23T00:06:34.977Z,18.20
2018-03-23T00:09:03.151Z,20.27
2018-03-23T00:14:32.905Z,17.80
2018-03-23T00:17:01.089Z,19.93
2018-03-23T00:19:29.298Z,19.00
2018-03-23T00:21:57.477Z,23.60
2018-03-23T00:24:25.729Z,23.53
2018-03-23T00:26:53.960Z,20.57
2018-03-23T00:29:22.953Z,37.47
2018-03-23T00:31:51.917Z,18.37
2018-03-23T00:34:20.092Z,20.27
2018-03-23T00:36:48.307Z,20.33
2018-03-23T00:39:36.552Z,20.40
2018-03-23T00:42:04.782Z,19.17
2018-03-23T00:44:33.002Z,29.93
2018-03-23T00:47:01.176Z,35.90
2018-03-23T00:49:29.379Z,27.80
2018-03-23T00:51:57.561Z,20.20
2018-03-23T00:54:25.815Z,19.93
2018-03-23T00:56:54.005Z,29.87
2018-03-23T00:59:22.197Z,28.50
2018-03-23T01:01:50.435Z,18.80
2018-03-23T01:04:18.613Z,20.33
2018-03-23T01:06:46.811Z,18.90
2018-03-23T01:09:15.021Z,17.00
2018-03-23T01:11:43.964Z,22.17
2018-03-23T01:14:12.181Z,24.43
2018-03-23T01:16:41.154Z,19.37
2018-03-23T01:19:09.337Z,18.87
2018-03-23T01:21:37.552Z,25.97
2018-03-23T01:24:05.731Z,17.63
2018-03-23T01:26:35.780Z,23.27
2018-03-23T01:29:04.056Z,20.20
2018-03-23T01:31:32.300Z,20.50
2018-03-23T01:34:00.544Z,19.47
2018-03-23T01:36:35.890Z,20.07
2018-03-23T01:39:04.019Z,20.27
2018-03-23T01:41:32.232Z,19.50
2018-03-23T01:47:02.646Z,30.87
2018-03-23T01:52:31.821Z,28.53
2018-03-23T01:54:59.996Z,33.97
2018-03-23T01:57:28.177Z,28.37
2018-03-23T01:59:56.438Z,32.10
2018-03-23T02:02:24.616Z,29.13
2018-03-23T02:04:52.797Z,22.20
2018-03-23T02:07:21.015Z,33.63
2018-03-23T02:09:49.197Z,35.70
2018-03-23T02:12:35.270Z,28.67
2018-03-23T02:15:03.467Z,32.40
2018-03-23T02:20:40.706Z,32.10
2018-03-23T02:23:35.088Z,28.70
2018-03-23T02:26:03.341Z,20.87
2018-03-23T02:28:32.295Z,20.57
2018-03-23T02:31:00.481Z,23.53
2018-03-23T02:33:35.441Z,17.40
2018-03-23T02:36:03.628Z,31.67
2018-03-23T02:38:31.795Z,18.60
2018-03-23T02:41:00.098Z,17.30
2018-03-23T02:43:28.264Z,17.40
2018-03-23T02:45:56.466Z,19.40
2018-03-23T02:48:24.656Z,18.47
2018-03-23T02:56:54.139Z,19.23
2018-03-23T02:59:22.336Z,19.43
2018-03-23T03:01:50.508Z,31.30
2018-03-23T03:04:18.735Z,26.70
2018-03-23T03:06:47.689Z,30.27
2018-03-23T03:09:35.219Z,17.47
2018-03-23T03:12:03.401Z,20.10
2018-03-23T03:14:31.572Z,16.07
2018-03-23T03:16:59.803Z,25.80
2018-03-23T03:19:27.994Z,19.83
2018-03-23T03:24:57.879Z,29.93
2018-03-23T03:27:35.390Z,30.10
2018-03-23T03:30:03.698Z,18.73
2018-03-23T03:32:34.976Z,20.60
2018-03-23T03:35:03.171Z,30.27
2018-03-23T03:37:32.452Z,28.73
2018-03-23T03:40:00.641Z,24.50
2018-03-23T03:42:29.590Z,16.67
2018-03-23T03:44:57.858Z,16.60
2018-03-23T03:47:26.044Z,16.27
2018-03-23T03:49:54.219Z,26.50
2018-03-23T03:52:22.444Z,21.67
2018-03-23T03:59:19.591Z,26.70
2018-03-23T04:01:47.782Z,29.77
2018-03-23T04:04:16.741Z,30.13
2018-03-23T04:06:44.972Z,18.97
2018-03-23T04:09:34.067Z,16.73
2018-03-23T04:12:02.295Z,27.73
2018-03-23T04:14:31.250Z,21.77
2018-03-23T04:16:59.421Z,28.33
2018-03-23T04:19:34.744Z,30.57
2018-03-23T04:22:03.752Z,16.47
2018-03-23T04:24:31.931Z,18.03
2018-03-23T04:30:04.150Z,14.60
2018-03-23T04:32:32.350Z,16.37
2018-03-23T04:35:00.534Z,16.87
2018-03-23T04:40:29.617Z,30.97
2018-03-23T04:42:57.796Z,32.03
2018-03-23T04:45:25.963Z,19.37
2018-03-23T04:47:54.204Z,18.77
2018-03-23T04:50:22.394Z,22.90
2018-03-23T04:52:51.363Z,30.67
2018-03-23T04:55:19.580Z,32.77
2018-03-23T04:57:47.779Z,31.47
2018-03-23T05:00:35.484Z,26.13
2018-03-23T05:03:03.674Z,16.40
2018-03-23T05:05:35.084Z,30.50
2018-03-23T05:08:04.079Z,28.53
2018-03-23T05:10:33.038Z,28.57
2018-03-23T05:13:01.223Z,23.63
2018-03-23T05:15:29.449Z,16.77
2018-03-23T05:17:57.635Z,17.90
2018-03-23T05:20:25.815Z,17.00
2018-03-23T05:22:54.074Z,29.77
2018-03-23T05:25:22.341Z,32.80
2018-03-23T05:27:50.539Z,34.50
2018-03-23T05:30:18.742Z,37.70
2018-03-23T05:32:47.390Z,34.50
2018-03-23T05:35:15.589Z,37.73
2018-03-23T05:37:43.825Z,35.00
2018-03-23T05:40:12.002Z,36.20
2018-03-23T05:42:40.175Z,36.33
2018-03-23T05:45:08.401Z,31.57
2018-03-23T05:47:36.579Z,33.80
2018-03-23T05:53:06.413Z,34.40
2018-03-23T05:55:35.356Z,34.73
2018-03-23T05:58:03.550Z,31.90
2018-03-23T06:00:31.781Z,35.60
2018-03-23T06:02:59.963Z,30.97
2018-03-23T06:05:28.148Z,33.20
2018-03-23T06:07:56.379Z,34.70
2018-03-23T06:13:25.737Z,39.43
2018-03-23T06:15:53.934Z,39.43
2018-03-23T06:21:23.709Z,38.23
2018-03-23T06:23:52.781Z,45.17
2018-03-23T06:26:20.984Z,40.80
2018-03-23T06:28:49.212Z,38.03
2018-03-23T06:31:17.494Z,41.87
2018-03-23T06:33:45.676Z,41.50
2018-03-23T06:36:15.450Z,40.77
2018-03-23T06:38:43.638Z,39.77
2018-03-23T06:41:11.829Z,42.70
2018-03-23T06:43:40.038Z,30.03
2018-03-23T06:49:10.145Z,40.10
2018-03-23T06:54:38.998Z,41.57
2018-03-23T06:57:07.179Z,40.47
2018-03-23T06:59:35.351Z,38.10
2018-03-23T07:02:33.793Z,39.20
2018-03-23T07:14:35.402Z,35.47
2018-03-23T07:17:03.590Z,42.63
2018-03-23T07:22:33.621Z,40.87
2018-03-23T07:31:03.517Z,35.90
2018-03-23T07:33:35.007Z,39.60
2018-03-23T07:36:03.232Z,36.87
2018-03-23T07:38:31.418Z,40.03
2018-03-23T07:40:59.615Z,41.17
2018-03-23T07:43:27.838Z,42.47
2018-03-23T07:48:56.825Z,32.60
2018-03-23T07:51:25.008Z,32.37
2018-03-23T07:59:54.933Z,31.40
2018-03-23T08:02:23.122Z,34.50
2018-03-23T08:04:51.309Z,35.43
2018-03-23T08:07:20.304Z,31.50
2018-03-23T08:14:18.194Z,31.40
2018-03-23T08:16:47.147Z,29.40
2018-03-23T08:19:15.326Z,26.43
2018-03-23T08:24:45.180Z,22.87
2018-03-23T08:27:13.365Z,21.73
2018-03-23T08:29:42.303Z,25.37
2018-03-23T08:32:10.544Z,24.30
2018-03-23T08:34:38.734Z,24.37
2018-03-23T08:37:06.926Z,25.70
2018-03-23T08:39:35.156Z,26.20
2018-03-23T08:42:04.087Z,24.57
2018-03-23T08:44:32.312Z,26.80
2018-03-23T08:47:00.526Z,26.27
2018-03-23T08:49:28.731Z,25.73
2018-03-23T08:51:56.903Z,26.50
2018-03-23T08:54:25.116Z,25.90
2018-03-23T08:59:55.747Z,23.60
2018-03-23T09:02:23.947Z,22.60
2018-03-23T09:04:52.133Z,23.00
2018-03-23T09:07:20.358Z,19.90
2018-03-23T09:09:48.546Z,21.80
2018-03-23T09:12:16.742Z,23.43
2018-03-23T09:14:44.948Z,20.80
2018-03-23T09:17:52.443Z,22.10
2018-03-23T09:20:20.652Z,19.67
2018-03-23T09:22:48.844Z,22.57
2018-03-23T09:25:17.806Z,20.27
2018-03-23T09:27:46.023Z,19.87
2018-03-23T09:30:14.978Z,21.70
2018-03-23T09:35:36.019Z,20.40
2018-03-23T09:41:20.711Z,22.57
2018-03-23T09:43:49.666Z,19.10
2018-03-23T09:46:17.863Z,18.57
2018-03-23T09:48:46.101Z,21.37
2018-03-23T09:51:14.276Z,22.50
2018-03-23T09:53:42.466Z,21.57
2018-03-23T09:56:12.194Z,18.53
2018-03-23T09:58:41.154Z,19.20
2018-03-23T10:01:09.346Z,19.83
2018-03-23T10:03:37.569Z,18.43
2018-03-23T10:06:05.763Z,14.33
2018-03-23T10:08:35.867Z,16.43
2018-03-23T10:11:04.106Z,22.67
2018-03-23T10:13:33.045Z,16.90
2018-03-23T10:19:02.117Z,18.40
2018-03-23T10:24:31.187Z,15.90
2018-03-23T10:26:59.377Z,13.97
2018-03-23T10:29:27.565Z,11.57
2018-03-23T10:31:55.791Z,16.90
2018-03-23T10:34:36.679Z,13.53
2018-03-23T10:37:04.938Z,21.17
2018-03-23T10:39:33.245Z,22.20
2018-03-23T10:42:01.579Z,19.20
2018-03-23T10:44:36.049Z,21.23
2018-03-23T10:47:04.268Z,20.93
2018-03-23T10:49:32.436Z,17.73
2018-03-23T10:52:00.643Z,17.20
2018-03-23T10:54:28.843Z,16.20
2018-03-23T10:56:57.038Z,12.17
2018-03-23T10:59:26.060Z,20.77
2018-03-23T11:08:46.778Z,11.90
2018-03-23T11:11:15.723Z,13.27
2018-03-23T11:13:43.910Z,14.30
2018-03-23T11:16:12.131Z,16.23
2018-03-23T11:18:40.313Z,15.97
2018-03-23T11:21:08.501Z,15.30
2018-03-23T11:26:26.486Z,14.90
2018-03-23T11:28:54.664Z,14.93
2018-03-23T11:31:22.851Z,15.90
2018-03-23T11:33:51.847Z,15.37
2018-03-23T11:36:20.811Z,16.60
2018-03-23T11:38:48.999Z,13.90
2018-03-23T11:41:17.299Z,17.43
2018-03-23T11:43:46.269Z,18.03
2018-03-23T11:46:14.454Z,19.30
2018-03-23T11:48:43.454Z,21.50
2018-03-23T11:51:12.394Z,22.03
2018-03-23T11:56:40.971Z,21.13
2018-03-23T11:59:09.156Z,21.00
2018-03-23T12:01:37.339Z,22.83
2018-03-23T12:04:05.565Z,19.10
2018-03-23T12:06:34.502Z,17.77
2018-03-23T12:15:03.422Z,20.77
2018-03-23T12:17:31.610Z,22.50
2018-03-23T12:23:00.382Z,22.30
2018-03-23T12:28:12.175Z,18.07
2018-03-23T12:30:41.133Z,11.80
2018-03-23T12:33:36.119Z,23.40
2018-03-23T12:39:05.171Z,18.40
2018-03-23T12:41:35.152Z,21.97
2018-03-23T12:44:03.337Z,21.87
2018-03-23T12:46:31.561Z,18.67
2018-03-23T12:48:59.756Z,21.00
2018-03-23T12:51:27.999Z,21.00
2018-03-23T12:56:57.758Z,21.03
2018-03-23T12:59:25.938Z,22.67
2018-03-23T13:01:54.135Z,22.03
2018-03-23T13:07:22.902Z,17.00
2018-03-23T13:09:51.098Z,21.00
2018-03-23T13:12:19.286Z,21.93
2018-03-23T13:17:47.966Z,23.67
2018-03-23T13:20:16.163Z,22.93
2018-03-23T13:22:44.352Z,22.73
2018-03-23T13:25:13.333Z,24.37
2018-03-23T13:27:41.508Z,20.50
2018-03-23T13:30:09.682Z,24.60
2018-03-23T13:32:37.913Z,24.93
2018-03-23T13:35:07.016Z,25.90
2018-03-23T13:37:35.261Z,25.43
2018-03-23T13:40:03.444Z,24.50
2018-03-23T13:45:36.437Z,26.37
2018-03-23T13:48:05.385Z,26.10
2018-03-23T13:50:33.565Z,21.33
2018-03-23T13:53:01.784Z,21.07
2018-03-23T13:55:29.959Z,16.47
2018-03-23T14:01:02.107Z,17.30
2018-03-23T14:06:30.655Z,14.90
2018-03-23T14:08:58.832Z,13.07
2018-03-23T14:11:27.017Z,13.10
2018-03-23T14:13:55.238Z,11.50
2018-03-23T14:16:23.423Z,12.60
2018-03-23T14:18:52.361Z,12.33
2018-03-23T14:21:20.576Z,11.77
2018-03-23T14:23:48.748Z,10.50
2018-03-23T14:26:35.112Z,9.90
2018-03-23T14:29:03.329Z,10.20
2018-03-23T14:34:33.873Z,9.00
2018-03-23T14:37:02.853Z,11.17
2018-03-23T14:39:37.154Z,10.90
2018-03-23T14:42:05.344Z,12.27
2018-03-23T14:44:36.787Z,8.97
2018-03-23T14:50:06.662Z,10.77
2018-03-23T14:52:34.840Z,11.70
2018-03-23T14:55:03.035Z,16.13
2018-03-23T14:57:37.765Z,15.60
2018-03-23T15:00:05.997Z,17.30
2018-03-23T15:02:34.941Z,15.53
2018-03-23T15:14:16.531Z,14.93
2018-03-23T15:16:45.474Z,13.37
2018-03-23T15:22:34.930Z,11.00
2018-03-23T15:31:04.937Z,8.47
2018-03-23T15:33:33.135Z,8.80
2018-03-23T15:36:02.072Z,6.97
2018-03-23T15:38:36.405Z,9.90
2018-03-23T15:44:05.358Z,8.10
2018-03-23T15:46:35.769Z,11.10
2018-03-23T15:52:04.710Z,8.60
2018-03-23T15:55:53.267Z,10.13
2018-03-23T15:58:21.476Z,8.93
2018-03-23T16:00:49.656Z,12.53
2018-03-23T16:06:35.786Z,12.33
2018-03-23T16:09:03.987Z,14.33
2018-03-23T16:17:36.802Z,12.93
2018-03-23T16:23:06.590Z,16.73
2018-03-23T16:28:36.155Z,13.77
2018-03-23T16:31:05.109Z,12.93
2018-03-23T16:33:33.287Z,13.00
2018-03-23T16:39:22.991Z,9.80
2018-03-23T16:47:54.304Z,9.20
2018-03-23T16:53:37.296Z,14.07
2018-03-23T17:10:55.877Z,28.83
2018-03-23T17:25:06.696Z,10.93
2018-03-23T17:27:41.167Z,10.27
2018-03-23T17:30:36.155Z,10.70
2018-03-23T17:49:40.246Z,12.80
2018-03-23T17:52:08.439Z,11.77
2018-03-23T17:54:37.408Z,11.50
2018-03-23T17:57:06.407Z,13.10
2018-03-23T17:59:35.726Z,13.80
2018-03-23T18:02:04.682Z,13.70
2018-03-23T18:04:32.910Z,15.17
2018-03-23T18:07:01.861Z,12.93
2018-03-23T18:15:32.071Z,13.93
2018-03-23T18:18:00.240Z,15.43
2018-03-23T18:20:28.411Z,14.23
2018-03-23T18:25:57.926Z,15.20
2018-03-23T18:28:29.934Z,13.90
2018-03-23T18:30:58.143Z,13.50
2018-03-23T18:33:36.520Z,16.00
2018-03-23T18:39:06.319Z,15.57
2018-03-23T18:41:34.537Z,18.70
2018-03-23T18:44:02.713Z,15.87
2018-03-23T18:46:30.950Z,16.43
2018-03-23T18:48:59.140Z,15.17
2018-03-23T18:54:27.627Z,18.37
2018-03-23T19:02:59.184Z,20.60
2018-03-23T19:08:35.806Z,17.90
2018-03-23T19:14:05.407Z,15.90
2018-03-23T19:16:34.372Z,16.63
2018-03-23T19:19:02.548Z,13.37
2018-03-23T19:21:37.061Z,17.03
2018-03-23T19:24:05.233Z,16.03
2018-03-23T19:26:36.838Z,17.53
2018-03-23T19:29:05.012Z,15.60
2018-03-23T19:31:33.184Z,18.27
2018-03-23T19:34:01.452Z,19.57
2018-03-23T19:39:29.738Z,19.93
2018-03-23T19:41:58.686Z,19.73
2018-03-23T19:44:26.867Z,19.53
2018-03-23T19:46:55.084Z,20.90
2018-03-23T19:49:36.135Z,18.43
2018-03-23T19:52:34.500Z,20.07
2018-03-23T19:55:02.680Z,23.83
2018-03-23T19:57:30.884Z,21.87
2018-03-23T20:03:00.704Z,27.87
2018-03-23T20:08:02.518Z,26.00
2018-03-23T20:10:30.692Z,23.67
2018-03-23T20:19:00.922Z,25.30
2018-03-23T20:21:35.556Z,25.70
2018-03-23T20:27:35.300Z,27.13
2018-03-23T20:38:50.680Z,24.63
2018-03-23T20:41:35.994Z,24.03
2018-03-23T20:52:56.060Z,28.77
2018-03-23T21:07:37.046Z,13.90
2018-03-23T21:13:34.785Z,21.80
2018-03-23T21:19:02.864Z,26.77
2018-03-23T21:30:37.122Z,13.20
2018-03-23T21:36:34.646Z,15.00
2018-03-23T21:39:02.832Z,14.60
2018-03-23T21:44:37.585Z,15.90
2018-03-23T21:47:05.774Z,14.90
2018-03-23T21:55:36.031Z,23.83
2018-03-23T21:58:04.980Z,26.27
2018-03-23T22:00:36.528Z,21.00
2018-03-23T22:06:35.665Z,13.97
2018-03-23T22:09:03.949Z,20.53
2018-03-23T22:11:32.140Z,18.60
2018-03-23T22:14:00.521Z,23.37
2018-03-23T22:16:30.191Z,33.23
2018-03-23T22:18:58.381Z,22.37
2018-03-23T22:21:26.600Z,15.07
2018-03-23T22:23:55.554Z,19.43
2018-03-23T22:29:25.872Z,13.20
2018-03-23T22:37:38.736Z,26.00
2018-03-23T22:40:34.232Z,28.93
2018-03-23T22:43:02.417Z,27.13
2018-03-23T22:45:30.703Z,14.27
2018-03-23T22:50:59.075Z,27.20
2018-03-23T22:53:27.267Z,14.93
2018-03-23T22:55:55.444Z,16.90
2018-03-23T22:58:23.660Z,14.37
2018-03-23T23:00:52.610Z,14.70
2018-03-23T23:03:20.814Z,22.77
2018-03-23T23:05:49.808Z,13.60
2018-03-23T23:11:20.136Z,15.60
2018-03-23T23:13:48.312Z,32.70
2018-03-23T23:16:35.949Z,29.30
2018-03-23T23:19:04.937Z,15.97
2018-03-23T23:24:33.459Z,14.40
2018-03-23T23:27:02.420Z,14.93
2018-03-23T23:29:30.600Z,14.20
2018-03-23T23:31:58.818Z,16.83
2018-03-23T23:34:27.029Z,23.67
2018-03-23T23:36:55.212Z,25.40
2018-03-23T23:39:23.448Z,17.17
2018-03-23T23:41:51.733Z,20.13
2018-03-23T23:44:19.915Z,16.47
2018-03-23T23:46:48.130Z,15.77
2018-03-23T23:52:17.447Z,18.97
2018-03-23T23:54:46.393Z,18.70
2018-03-23T23:57:14.576Z,18.50
2018-03-23T23:59:42.804Z,20.83
